YBBN/BNE METAR and TAF weather

Enter ICAO airport designator
Station Type Date Time Source
YBBN METAR 2019/04/20 22:00 UTC NOAA

YBBN 202200Z 19007KT 9999 FEW030 22/18 Q1022 NOSIG


Station Type Date Time Source
YBBN Decoded METAR 2019/04/20 22:00 UTC NOAA

Brisbane Airport M. O, Australia (YBBN) 27-23S 153-06E 5M
Apr 20, 2019 - 06:00 PM EDT / 2019.04.20 2200 UTC
Wind: from the S (190 degrees) at 8 MPH (7 KT):0
Visibility: greater than 7 mile(s):0
Sky conditions: mostly clear
Temperature: 71 F (22 C)
Dew Point: 64 F (18 C)
Relative Humidity: 78%
Pressure (altimeter): 30.18 in. Hg (1022 hPa)
ob: YBBN 202200Z 19007KT 9999 FEW030 22/18 Q1022 NOSIG
cycle: 22

Station Type Date Time Source
YBBN TAF 2019/04/20 18:46 UTC NOAA

TAF
AMD YBBN 201738Z 2018/2124 16008KT 9999 -SHRA SCT015 BKN040
FM210000 12014KT 9999 -SHRA SCT025
FM211000 17008KT 9999 -SHRA SCT025 SCT040

Example: see airport list